createdAt,value
2019-04-03T00:00:31.360Z,15.48
2019-04-03T00:03:35.150Z,11.95
2019-04-03T00:06:38.956Z,14.45
2019-04-03T00:09:42.600Z,14.90
2019-04-03T00:12:46.393Z,12.88
2019-04-03T00:15:50.520Z,12.28
2019-04-03T00:18:54.371Z,16.00
2019-04-03T00:21:58.080Z,17.32
2019-04-03T00:25:01.802Z,15.68
2019-04-03T00:28:05.515Z,17.17
2019-04-03T00:31:09.217Z,16.87
2019-04-03T00:34:13.104Z,16.67
2019-04-03T00:37:16.776Z,14.65
2019-04-03T00:40:20.713Z,17.57
2019-04-03T00:43:25.318Z,16.57
2019-04-03T00:46:29.219Z,14.28
2019-04-03T00:49:33.069Z,14.58
2019-04-03T00:52:36.743Z,15.13
2019-04-03T00:55:42.074Z,13.60
2019-04-03T00:58:45.762Z,15.83
2019-04-03T01:01:49.429Z,17.30
2019-04-03T01:04:53.093Z,17.67
2019-04-03T01:07:59.238Z,17.35
2019-04-03T01:11:02.292Z,15.85
2019-04-03T01:14:06.205Z,15.27
2019-04-03T01:17:10.074Z,17.82
2019-04-03T01:20:13.768Z,18.27
2019-04-03T01:23:17.417Z,16.48
2019-04-03T01:26:21.547Z,17.23
2019-04-03T01:29:25.419Z,15.50
2019-04-03T01:32:29.142Z,16.62
2019-04-03T01:35:32.959Z,18.70
2019-04-03T01:38:36.654Z,18.87
2019-04-03T01:41:40.901Z,16.25
2019-04-03T01:44:47.998Z,14.87
2019-04-03T01:47:52.389Z,19.62
2019-04-03T01:50:56.255Z,16.87
2019-04-03T01:54:13.723Z,17.37
2019-04-03T01:57:06.667Z,17.25
2019-04-03T02:00:11.633Z,22.25
2019-04-03T02:03:15.384Z,14.93
2019-04-03T02:06:19.081Z,18.85
2019-04-03T02:09:22.840Z,16.80
2019-04-03T02:12:27.573Z,16.62
2019-04-03T02:15:35.056Z,16.25
2019-04-03T02:18:39.053Z,17.15
2019-04-03T02:21:43.058Z,21.60
2019-04-03T02:24:50.063Z,16.33
2019-04-03T02:27:54.178Z,21.95
2019-04-03T02:31:00.197Z,21.85
2019-04-03T02:34:03.934Z,17.42
2019-04-03T02:37:10.827Z,19.30
2019-04-03T02:40:14.552Z,16.07
2019-04-03T02:43:19.860Z,20.00
2019-04-03T02:46:27.748Z,18.30
2019-04-03T02:49:31.037Z,21.97
2019-04-03T02:52:35.339Z,20.40
2019-04-03T02:55:40.603Z,21.23
2019-04-03T02:58:44.776Z,17.17
2019-04-03T03:01:48.390Z,17.02
2019-04-03T03:04:54.759Z,17.85
2019-04-03T03:07:57.749Z,19.57
2019-04-03T03:11:02.908Z,19.87
2019-04-03T03:14:07.677Z,17.07
2019-04-03T03:17:11.838Z,19.30
2019-04-03T03:20:15.939Z,18.98
2019-04-03T03:23:22.460Z,16.62
2019-04-03T03:26:25.515Z,17.02
2019-04-03T03:29:29.563Z,17.75
2019-04-03T03:32:35.685Z,19.05
2019-04-03T03:35:43.945Z,18.85
2019-04-03T03:38:44.655Z,18.55
2019-04-03T03:41:48.368Z,18.23
2019-04-03T03:44:53.096Z,20.08
2019-04-03T03:50:59.930Z,19.77
2019-04-03T03:54:04.406Z,19.75
2019-04-03T03:57:08.033Z,19.32
2019-04-03T04:00:11.709Z,18.12
2019-04-03T04:03:15.472Z,21.07
2019-04-03T04:06:19.339Z,21.35
2019-04-03T04:09:24.036Z,24.73
2019-04-03T04:12:27.987Z,21.23
2019-04-03T04:15:31.911Z,20.90
2019-04-03T04:18:36.025Z,24.27
2019-04-03T04:21:42.635Z,23.27
2019-04-03T04:24:45.290Z,21.87
2019-04-03T04:27:49.126Z,20.62
2019-04-03T04:30:52.789Z,19.80
2019-04-03T04:33:56.659Z,19.92
2019-04-03T04:37:02.141Z,20.60
2019-04-03T04:40:05.713Z,18.95
2019-04-03T04:43:09.514Z,21.50
2019-04-03T04:46:13.500Z,22.45
2019-04-03T04:49:18.057Z,23.35
2019-04-03T04:52:21.778Z,19.13
2019-04-03T04:55:27.000Z,21.12
2019-04-03T04:58:30.783Z,21.82
2019-04-03T05:01:34.513Z,25.25
2019-04-03T05:04:38.217Z,16.17
2019-04-03T05:07:41.906Z,20.92
2019-04-03T05:10:47.382Z,22.15
2019-04-03T05:13:51.025Z,17.82
2019-04-03T05:16:55.912Z,20.00
2019-04-03T05:19:59.908Z,21.52
2019-04-03T05:23:03.812Z,20.88
2019-04-03T05:26:07.595Z,18.87
2019-04-03T05:29:11.382Z,23.57
2019-04-03T05:32:15.322Z,20.02
2019-04-03T05:35:18.988Z,22.53
2019-04-03T05:38:22.668Z,19.85
2019-04-03T05:41:28.558Z,22.07
2019-04-03T05:44:33.403Z,22.27
2019-04-03T05:47:39.275Z,19.17
2019-04-03T05:50:42.450Z,18.75
2019-04-03T05:53:46.098Z,24.72
2019-04-03T05:56:51.608Z,25.50
2019-04-03T06:00:00.814Z,22.17
2019-04-03T06:03:00.942Z,19.67
2019-04-03T06:06:04.546Z,19.57
2019-04-03T06:09:08.227Z,18.12
2019-04-03T06:12:13.899Z,18.17
2019-04-03T06:15:17.348Z,22.40
2019-04-03T06:18:21.060Z,27.05
2019-04-03T06:21:24.677Z,19.42
2019-04-03T06:24:28.363Z,23.75
2019-04-03T06:27:31.966Z,24.20
2019-04-03T06:30:35.658Z,17.65
2019-04-03T06:33:39.515Z,19.65
2019-04-03T06:36:43.159Z,19.02
2019-04-03T06:39:46.978Z,21.85
2019-04-03T06:42:50.895Z,22.58
2019-04-03T06:45:57.001Z,17.55
2019-04-03T06:49:00.304Z,17.92
2019-04-03T06:52:04.459Z,19.40
2019-04-03T06:55:08.161Z,26.77
2019-04-03T06:58:12.355Z,20.80
2019-04-03T07:01:16.392Z,22.98
2019-04-03T07:04:20.390Z,21.20
2019-04-03T07:07:33.519Z,20.12
2019-04-03T07:10:29.411Z,17.95
2019-04-03T07:13:33.029Z,16.95
2019-04-03T07:16:38.614Z,22.15
2019-04-03T07:19:42.144Z,19.15
2019-04-03T07:22:45.801Z,19.45
2019-04-03T07:25:49.611Z,20.77
2019-04-03T07:28:53.312Z,22.62
2019-04-03T07:31:57.096Z,20.97
2019-04-03T07:35:00.794Z,23.57
2019-04-03T07:38:04.778Z,19.85
2019-04-03T07:41:08.436Z,20.45
2019-04-03T07:44:12.298Z,21.97
2019-04-03T07:47:16.213Z,21.82
2019-04-03T07:50:19.946Z,19.00
2019-04-03T07:53:23.611Z,25.25
2019-04-03T07:56:27.292Z,19.67
2019-04-03T07:59:33.461Z,21.40
2019-04-03T08:02:36.567Z,19.52
2019-04-03T08:05:40.432Z,21.17
2019-04-03T08:08:45.163Z,19.30
2019-04-03T08:11:49.103Z,26.07
2019-04-03T08:14:52.776Z,20.92
2019-04-03T08:17:57.823Z,25.62
2019-04-03T08:21:02.268Z,18.52
2019-04-03T08:24:08.191Z,23.52
2019-04-03T08:27:11.599Z,21.02
2019-04-03T08:30:15.742Z,21.00
2019-04-03T08:33:25.590Z,32.53
2019-04-03T08:36:26.401Z,20.92
2019-04-03T08:39:30.774Z,24.27
2019-04-03T08:42:34.778Z,19.05
2019-04-03T08:45:39.249Z,25.35
2019-04-03T08:48:43.458Z,25.52
2019-04-03T08:51:47.079Z,25.48
2019-04-03T08:54:50.878Z,24.95
2019-04-03T08:57:54.569Z,23.67
2019-04-03T09:00:58.529Z,19.55
2019-04-03T09:04:02.108Z,20.70
2019-04-03T09:07:05.776Z,20.75
2019-04-03T09:10:09.412Z,20.88
2019-04-03T09:13:17.395Z,20.80
2019-04-03T09:16:18.453Z,20.95
2019-04-03T09:19:22.065Z,23.38
2019-04-03T09:22:26.160Z,22.17
2019-04-03T09:25:31.596Z,19.60
2019-04-03T09:28:35.562Z,24.02
2019-04-03T09:31:39.494Z,24.77
2019-04-03T09:34:43.607Z,24.57
2019-04-03T09:37:47.789Z,33.47
2019-04-03T09:40:52.016Z,20.80
2019-04-03T09:43:56.016Z,30.57
2019-04-03T09:47:02.919Z,25.60
2019-04-03T09:50:07.583Z,20.48
2019-04-03T09:53:11.562Z,21.30
2019-04-03T09:56:15.431Z,21.17
2019-04-03T09:59:19.157Z,20.30
2019-04-03T10:02:22.954Z,24.37
2019-04-03T10:05:28.990Z,26.02
2019-04-03T10:08:32.530Z,24.47
2019-04-03T10:11:38.427Z,21.07
2019-04-03T10:14:42.150Z,21.73
2019-04-03T10:17:46.092Z,21.10
2019-04-03T10:20:49.879Z,21.02
2019-04-03T10:23:53.600Z,24.40
2019-04-03T10:26:57.211Z,21.40
2019-04-03T10:30:01.142Z,23.52
2019-04-03T10:33:05.560Z,17.42
2019-04-03T10:36:11.443Z,22.65
2019-04-03T10:39:15.962Z,22.80
2019-04-03T10:45:23.084Z,22.15
2019-04-03T10:48:27.867Z,22.70
2019-04-03T10:51:32.587Z,20.62
2019-04-03T10:54:38.010Z,35.28
2019-04-03T10:57:42.899Z,20.80
2019-04-03T11:00:46.812Z,26.17
2019-04-03T11:03:50.850Z,25.95
2019-04-03T11:06:54.741Z,26.52
2019-04-03T11:09:58.582Z,28.42
2019-04-03T11:13:03.268Z,26.50
2019-04-03T11:16:07.826Z,22.65
2019-04-03T11:19:11.786Z,26.87
2019-04-03T11:22:16.305Z,30.70
2019-04-03T11:28:24.183Z,24.27
2019-04-03T11:31:29.585Z,34.10
2019-04-03T11:34:33.859Z,25.65
2019-04-03T11:37:37.790Z,43.85
2019-04-03T11:40:41.822Z,32.23
2019-04-03T11:43:45.502Z,27.70
2019-04-03T11:46:50.526Z,29.67
2019-04-03T11:52:59.151Z,29.90
2019-04-03T11:56:03.266Z,24.90
2019-04-03T11:59:07.359Z,29.93
2019-04-03T12:02:11.928Z,27.98
2019-04-03T12:05:19.950Z,25.25
2019-04-03T12:08:21.793Z,29.85
2019-04-03T12:11:25.956Z,30.20
2019-04-03T12:14:29.902Z,29.15
2019-04-03T12:17:34.624Z,30.57
2019-04-03T12:20:41.209Z,45.03
2019-04-03T12:23:45.372Z,27.50
2019-04-03T12:26:51.703Z,27.58
2019-04-03T12:29:55.700Z,30.35
2019-04-03T12:33:00.409Z,32.65
2019-04-03T12:36:06.676Z,29.03
2019-04-03T12:39:14.539Z,31.62
2019-04-03T12:42:18.336Z,30.72
2019-04-03T12:45:22.147Z,30.55
2019-04-03T12:48:27.866Z,34.08
2019-04-03T12:51:31.582Z,29.77
2019-04-03T12:54:36.657Z,26.82
2019-04-03T12:57:41.684Z,32.45
2019-04-03T13:03:50.557Z,27.27
2019-04-03T13:06:54.629Z,32.55
2019-04-03T13:09:58.970Z,29.12
2019-04-03T13:13:03.441Z,35.92
2019-04-03T13:16:10.276Z,26.42
2019-04-03T13:19:15.977Z,27.22
2019-04-03T13:22:20.331Z,30.52
2019-04-03T13:25:24.174Z,31.48
2019-04-03T13:28:28.474Z,31.68
2019-04-03T13:31:32.438Z,28.87
2019-04-03T13:34:36.509Z,33.48
2019-04-03T13:37:40.894Z,29.80
2019-04-03T13:40:45.044Z,34.53
2019-04-03T13:43:49.230Z,30.65
2019-04-03T13:46:53.390Z,32.00
2019-04-03T13:49:57.401Z,38.30
2019-04-03T13:53:01.686Z,25.37
2019-04-03T13:56:06.598Z,29.95
2019-04-03T13:59:11.021Z,30.48
2019-04-03T14:02:15.174Z,31.15
2019-04-03T14:05:19.176Z,38.17
2019-04-03T14:08:23.339Z,32.48
2019-04-03T14:11:29.878Z,33.43
2019-04-03T14:14:33.039Z,38.35
2019-04-03T14:17:37.133Z,39.00
2019-04-03T14:20:41.299Z,32.50
2019-04-03T14:23:45.058Z,29.70
2019-04-03T14:26:48.900Z,46.55
2019-04-03T14:29:52.654Z,33.42
2019-04-03T14:32:56.446Z,48.65
2019-04-03T14:36:00.180Z,37.83
2019-04-03T14:39:08.753Z,36.73
2019-04-03T14:42:11.003Z,42.00
2019-04-03T14:45:15.358Z,34.38
2019-04-03T14:48:19.731Z,35.75
2019-04-03T14:51:24.014Z,40.08
2019-04-03T14:54:30.353Z,34.97
2019-04-03T14:57:33.444Z,42.13
2019-04-03T15:00:37.893Z,32.20
2019-04-03T15:03:41.707Z,29.37
2019-04-03T15:06:46.387Z,39.67
2019-04-03T15:09:51.100Z,41.05
2019-04-03T15:12:55.158Z,41.48
2019-04-03T15:16:00.358Z,32.33
2019-04-03T15:19:05.020Z,32.58
2019-04-03T15:22:08.908Z,36.63
2019-04-03T15:25:15.019Z,28.87
2019-04-03T15:28:18.829Z,43.50
2019-04-03T15:31:24.067Z,30.95
2019-04-03T15:34:29.230Z,35.95
2019-04-03T15:37:33.738Z,39.98
2019-04-03T15:40:38.494Z,25.97
2019-04-03T15:43:45.393Z,34.88
2019-04-03T15:46:47.860Z,49.88
2019-04-03T15:49:52.112Z,42.58
2019-04-03T15:52:56.376Z,33.08
2019-04-03T15:56:00.498Z,29.80
2019-04-03T15:59:04.524Z,25.43
2019-04-03T16:02:10.515Z,42.30
2019-04-03T16:05:14.957Z,36.00
2019-04-03T16:08:18.699Z,28.77
2019-04-03T16:11:22.603Z,40.33
2019-04-03T16:14:28.168Z,25.60
2019-04-03T16:17:33.932Z,37.63
2019-04-03T16:20:37.433Z,28.60
2019-04-03T16:23:45.004Z,31.40
2019-04-03T16:26:49.317Z,70.57
2019-04-03T16:29:53.978Z,96.82
2019-04-03T16:33:01.830Z,204.45
2019-04-03T16:36:03.562Z,196.68
2019-04-03T16:39:08.268Z,168.00
2019-04-03T16:42:12.453Z,92.20
2019-04-03T16:45:16.322Z,80.95
2019-04-03T16:48:21.349Z,65.65
2019-04-03T16:54:29.777Z,40.23
2019-04-03T16:57:34.644Z,67.10
2019-04-03T17:00:40.961Z,52.73
2019-04-03T17:03:44.426Z,52.45
2019-04-03T17:06:49.082Z,43.85
2019-04-03T17:12:58.030Z,38.05
2019-04-03T17:16:02.471Z,32.55
2019-04-03T17:19:07.774Z,48.85
2019-04-03T17:22:11.730Z,35.60
2019-04-03T17:25:16.516Z,56.42
2019-04-03T17:28:21.034Z,45.10
2019-04-03T17:31:25.766Z,38.90
2019-04-03T17:34:29.712Z,51.55
2019-04-03T17:37:33.522Z,40.88
2019-04-03T17:40:37.326Z,46.05
2019-04-03T17:43:43.076Z,50.85
2019-04-03T17:46:49.357Z,40.90
2019-04-03T17:49:54.588Z,35.92
2019-04-03T17:52:58.511Z,39.00
2019-04-03T17:56:04.915Z,33.60
2019-04-03T17:59:10.483Z,24.65
2019-04-03T18:02:16.151Z,23.98
2019-04-03T18:05:21.744Z,28.92
2019-04-03T18:08:25.509Z,25.12
2019-04-03T18:11:29.352Z,30.40
2019-04-03T18:14:33.202Z,23.90
2019-04-03T18:17:37.133Z,25.68
2019-04-03T18:20:44.332Z,28.07
2019-04-03T18:23:48.664Z,21.55
2019-04-03T18:26:52.778Z,20.72
2019-04-03T18:29:58.192Z,35.47
2019-04-03T18:33:02.320Z,26.75
2019-04-03T18:36:07.810Z,23.33
2019-04-03T18:39:11.889Z,28.07
2019-04-03T18:42:18.567Z,28.70
2019-04-03T18:45:25.776Z,28.90
2019-04-03T18:48:31.274Z,32.00
2019-04-03T18:51:36.726Z,30.90
2019-04-03T18:54:42.493Z,32.38
2019-04-03T18:57:49.577Z,26.02
2019-04-03T19:00:53.531Z,25.43
2019-04-03T19:03:57.559Z,27.48
2019-04-03T19:07:01.503Z,28.80
2019-04-03T19:10:07.964Z,24.85
2019-04-03T19:13:13.988Z,27.42
2019-04-03T19:16:29.527Z,28.12
2019-04-03T19:19:25.819Z,27.67
2019-04-03T19:22:30.090Z,29.82
2019-04-03T19:25:34.320Z,29.00
2019-04-03T19:28:38.338Z,33.05
2019-04-03T19:31:42.748Z,28.73
2019-04-03T19:34:46.958Z,30.05
2019-04-03T19:37:51.358Z,26.53
2019-04-03T19:40:55.366Z,22.42
2019-04-03T19:44:00.667Z,29.98
2019-04-03T19:47:14.112Z,37.70
2019-04-03T19:50:21.321Z,24.72
2019-04-03T19:53:25.712Z,24.77
2019-04-03T19:56:29.526Z,30.55
2019-04-03T19:59:34.659Z,26.02
2019-04-03T20:02:43.020Z,28.45
2019-04-03T20:05:45.823Z,23.38
2019-04-03T20:08:49.798Z,22.45
2019-04-03T20:11:53.613Z,25.23
2019-04-03T20:14:58.998Z,21.27
2019-04-03T20:18:04.769Z,20.17
2019-04-03T20:21:09.884Z,22.87
2019-04-03T20:24:13.878Z,23.00
2019-04-03T20:27:19.773Z,25.48
2019-04-03T20:30:23.568Z,20.02
2019-04-03T20:33:27.544Z,22.27
2019-04-03T20:36:31.390Z,29.98
2019-04-03T20:39:35.282Z,23.10
2019-04-03T20:42:41.474Z,23.07
2019-04-03T20:45:45.363Z,24.05
2019-04-03T20:48:49.138Z,23.95
2019-04-03T20:51:53.493Z,25.43
2019-04-03T20:54:57.124Z,27.70
2019-04-03T20:58:00.829Z,29.12
2019-04-03T21:01:06.884Z,23.67
2019-04-03T21:04:09.968Z,27.42
2019-04-03T21:07:13.666Z,20.12
2019-04-03T21:10:17.444Z,21.27
2019-04-03T21:13:21.196Z,21.65
2019-04-03T21:16:33.075Z,26.25
2019-04-03T21:19:30.483Z,26.17
2019-04-03T21:22:34.486Z,25.82
2019-04-03T21:25:40.598Z,29.57
2019-04-03T21:28:44.827Z,23.60
2019-04-03T21:31:49.270Z,23.42
2019-04-03T21:34:53.017Z,23.40
2019-04-03T21:37:56.671Z,25.45
2019-04-03T21:41:00.375Z,29.50
2019-04-03T21:44:04.026Z,26.50
2019-04-03T21:47:07.899Z,29.42
2019-04-03T21:50:11.654Z,25.65
2019-04-03T21:53:15.338Z,23.80
2019-04-03T21:56:19.293Z,23.12
2019-04-03T21:59:22.996Z,30.43
2019-04-03T22:02:26.748Z,23.65
2019-04-03T22:05:30.679Z,23.40
2019-04-03T22:08:34.307Z,24.23
2019-04-03T22:11:37.995Z,22.75
2019-04-03T22:14:42.894Z,23.83
2019-04-03T22:17:47.064Z,23.92
2019-04-03T22:20:51.654Z,24.65
2019-04-03T22:23:55.725Z,28.38
2019-04-03T22:26:59.415Z,21.30
2019-04-03T22:30:03.072Z,22.70
2019-04-03T22:33:06.857Z,21.70
2019-04-03T22:36:10.766Z,22.50
2019-04-03T22:39:14.502Z,25.62
2019-04-03T22:42:18.380Z,24.95
2019-04-03T22:45:22.324Z,23.10
2019-04-03T22:48:27.506Z,20.52
2019-04-03T22:51:31.546Z,24.07
2019-04-03T22:54:35.507Z,26.95
2019-04-03T22:57:39.263Z,29.80
2019-04-03T23:00:42.918Z,22.67
2019-04-03T23:03:49.107Z,26.07
2019-04-03T23:06:52.350Z,22.27
2019-04-03T23:09:56.868Z,23.87
2019-04-03T23:16:04.062Z,27.07
2019-04-03T23:19:07.676Z,24.70
2019-04-03T23:22:11.460Z,24.52
2019-04-03T23:25:15.424Z,19.87
2019-04-03T23:28:19.082Z,22.27
2019-04-03T23:31:22.947Z,24.10
2019-04-03T23:34:26.814Z,24.45
2019-04-03T23:37:30.581Z,24.02
2019-04-03T23:40:34.778Z,25.35
2019-04-03T23:43:39.526Z,24.50
2019-04-03T23:49:50.903Z,24.40
2019-04-03T23:52:53.975Z,27.27
2019-04-03T23:55:57.928Z,24.65
2019-04-03T23:59:01.573Z,28.40
